createdAt,value
2024-02-13T00:01:57.528Z,34
2024-02-13T00:06:58.936Z,29
2024-02-13T00:12:00.476Z,31
2024-02-13T00:17:01.948Z,29
2024-02-13T00:22:03.343Z,30
2024-02-13T00:27:04.882Z,42
2024-02-13T00:32:06.378Z,37
2024-02-13T00:37:07.852Z,35
2024-02-13T00:42:09.277Z,27
2024-02-13T00:47:10.737Z,35
2024-02-13T00:52:12.192Z,33
2024-02-13T00:57:13.616Z,37
2024-02-13T01:02:15.178Z,28
2024-02-13T01:07:16.874Z,39
2024-02-13T01:12:18.381Z,37
2024-02-13T01:17:19.809Z,39
2024-02-13T01:22:21.277Z,36
2024-02-13T01:27:22.682Z,30
2024-02-13T01:32:24.307Z,33
2024-02-13T01:37:25.743Z,38
2024-02-13T01:42:27.177Z,37
2024-02-13T01:47:28.839Z,34
2024-02-13T01:52:30.416Z,30
2024-02-13T01:57:31.821Z,20
2024-02-13T02:02:33.754Z,40
2024-02-13T02:07:35.166Z,44
2024-02-13T02:12:36.547Z,28
2024-02-13T02:17:38.270Z,35
2024-02-13T02:22:39.753Z,32
2024-02-13T02:27:41.185Z,31
2024-02-13T02:32:42.947Z,30
2024-02-13T02:37:44.602Z,36
2024-02-13T02:42:45.960Z,28
2024-02-13T02:47:47.510Z,35
2024-02-13T02:52:49.157Z,40
2024-02-13T02:57:50.666Z,25
2024-02-13T03:02:52.522Z,33
2024-02-13T03:07:54.232Z,23
2024-02-13T03:12:55.795Z,33
2024-02-13T03:17:57.371Z,33
2024-02-13T03:22:59.160Z,39
2024-02-13T03:28:00.712Z,23
2024-02-13T03:33:02.554Z,31
2024-02-13T03:38:04.278Z,27
2024-02-13T03:43:06.158Z,41
2024-02-13T03:48:07.750Z,34
2024-02-13T03:53:09.305Z,37
2024-02-13T03:58:10.816Z,36
2024-02-13T04:03:12.215Z,33
2024-02-13T04:08:14.095Z,46
2024-02-13T04:13:15.694Z,30
2024-02-13T04:18:17.209Z,46
2024-02-13T04:23:18.660Z,43
2024-02-13T04:28:20.101Z,43
2024-02-13T04:33:21.663Z,35
2024-02-13T04:38:23.204Z,40
2024-02-13T04:43:24.761Z,43
2024-02-13T04:48:26.511Z,39
2024-02-13T04:53:28.077Z,37
2024-02-13T04:58:29.628Z,35
2024-02-13T05:03:31.064Z,29
2024-02-13T05:08:32.584Z,37
2024-02-13T05:13:34.209Z,28
2024-02-13T05:18:35.744Z,47
2024-02-13T05:23:37.209Z,31
2024-02-13T05:28:39.040Z,33
2024-02-13T05:33:40.825Z,41
2024-02-13T05:38:42.532Z,34
2024-02-13T05:43:44.068Z,39
2024-02-13T05:48:45.546Z,40
2024-02-13T05:53:47.344Z,35
2024-02-13T05:58:48.841Z,35
2024-02-13T06:03:50.527Z,40
2024-02-13T06:08:52.326Z,49
2024-02-13T06:13:53.942Z,55
2024-02-13T06:18:55.496Z,55
2024-02-13T06:23:57.175Z,40
2024-02-13T06:28:58.796Z,50
2024-02-13T06:34:00.562Z,39
2024-02-13T06:39:02.268Z,38
2024-02-13T06:44:03.795Z,43
2024-02-13T06:49:05.307Z,44
2024-02-13T06:54:06.967Z,44
2024-02-13T06:59:08.432Z,50
2024-02-13T07:04:09.835Z,46
2024-02-13T07:09:11.574Z,34
2024-02-13T07:14:13.153Z,43
2024-02-13T07:19:14.957Z,51
2024-02-13T07:24:16.522Z,32
2024-02-13T07:29:18.046Z,44
2024-02-13T07:34:19.640Z,44
2024-02-13T07:39:21.353Z,44
2024-02-13T07:44:22.828Z,43
2024-02-13T07:49:24.389Z,43
2024-02-13T07:54:26.056Z,37
2024-02-13T07:59:27.628Z,45
2024-02-13T08:04:29.135Z,32
2024-02-13T08:09:30.638Z,36
2024-02-13T08:14:32.252Z,40
2024-02-13T08:19:33.687Z,39
2024-02-13T08:24:35.258Z,32
2024-02-13T08:29:36.721Z,34
2024-02-13T08:34:38.318Z,41
2024-02-13T08:39:39.823Z,35
2024-02-13T08:44:41.220Z,34
2024-02-13T08:49:42.734Z,43
2024-02-13T08:54:44.437Z,32
2024-02-13T08:59:46.081Z,32
2024-02-13T09:04:47.592Z,37
2024-02-13T09:09:49.255Z,41
2024-02-13T09:14:50.842Z,26
2024-02-13T09:19:52.246Z,34
2024-02-13T09:24:56.162Z,33
2024-02-13T09:29:59.244Z,33
2024-02-13T09:35:00.881Z,36
2024-02-13T09:40:02.395Z,24
2024-02-13T09:45:03.892Z,27
2024-02-13T09:50:05.461Z,28
2024-02-13T09:55:06.916Z,27
2024-02-13T10:00:08.318Z,39
2024-02-13T10:05:10.238Z,33
2024-02-13T10:10:11.815Z,24
2024-02-13T10:15:13.354Z,23
2024-02-13T10:20:14.889Z,19
2024-02-13T10:25:27.270Z,21
2024-02-13T10:30:28.851Z,17
2024-02-13T10:35:30.500Z,19
2024-02-13T10:40:32.131Z,23
2024-02-13T10:45:33.520Z,18
2024-02-13T10:50:35.032Z,15
2024-02-13T10:55:37.178Z,18
2024-02-13T11:00:39.674Z,26
2024-02-13T11:05:41.317Z,18
2024-02-13T11:10:43.500Z,20
2024-02-13T11:15:45.551Z,20
2024-02-13T11:20:47.210Z,12
2024-02-13T11:25:48.714Z,16
2024-02-13T11:30:50.229Z,14
2024-02-13T11:35:51.886Z,16
2024-02-13T11:40:53.390Z,16
2024-02-13T11:45:54.754Z,13
2024-02-13T11:50:56.307Z,14
2024-02-13T11:55:57.839Z,11
2024-02-13T12:00:59.265Z,9
2024-02-13T12:06:00.762Z,14
2024-02-13T12:11:02.314Z,12
2024-02-13T12:16:04.115Z,14
2024-02-13T12:21:05.616Z,18
2024-02-13T12:26:07.051Z,12
2024-02-13T12:31:08.540Z,16
2024-02-13T12:36:10.143Z,15
2024-02-13T12:41:11.661Z,10
2024-02-13T12:46:13.084Z,19
2024-02-13T12:51:14.692Z,16
2024-02-13T12:56:16.117Z,19
2024-02-13T13:01:17.573Z,15
2024-02-13T13:06:19.226Z,17
2024-02-13T13:11:20.869Z,9
2024-02-13T13:16:22.322Z,15
2024-02-13T13:21:23.894Z,18
2024-02-13T13:26:25.614Z,11
2024-02-13T13:31:27.254Z,13
2024-02-13T13:36:28.722Z,17
2024-02-13T13:41:30.170Z,11
2024-02-13T13:46:31.644Z,21
2024-02-13T13:51:33.416Z,13
2024-02-13T13:56:34.903Z,14
2024-02-13T14:01:36.293Z,21
2024-02-13T14:06:37.818Z,15
2024-02-13T14:11:39.344Z,26
2024-02-13T14:16:40.815Z,28
2024-02-13T14:21:42.271Z,16
2024-02-13T14:26:43.702Z,16
2024-02-13T14:31:45.167Z,22
2024-02-13T14:36:49.023Z,27
2024-02-13T14:41:51.473Z,19
2024-02-13T14:46:53.367Z,20
2024-02-13T14:51:55.003Z,30
2024-02-13T14:56:56.536Z,19
2024-02-13T15:01:58.050Z,23
2024-02-13T15:06:59.482Z,15
2024-02-13T15:12:01.416Z,13
2024-02-13T15:17:03.078Z,27
2024-02-13T15:22:04.579Z,23
2024-02-13T15:27:05.968Z,21
2024-02-13T15:32:07.465Z,21
2024-02-13T15:37:08.922Z,24
2024-02-13T15:42:21.029Z,17
2024-02-13T15:47:22.788Z,21
2024-02-13T15:52:24.289Z,23
2024-02-13T15:57:25.780Z,23
2024-02-13T16:02:27.453Z,26
2024-02-13T16:07:28.983Z,24
2024-02-13T16:12:30.617Z,20
2024-02-13T16:17:32.415Z,17
2024-02-13T16:22:33.958Z,24
2024-02-13T16:27:35.490Z,28
2024-02-13T16:32:40.565Z,24
2024-02-13T16:37:44.611Z,34
2024-02-13T16:42:46.400Z,24
2024-02-13T16:47:48.131Z,14
2024-02-13T16:52:49.796Z,26
2024-02-13T16:57:51.224Z,27
2024-02-13T17:02:52.769Z,24
2024-02-13T17:07:54.184Z,25
2024-02-13T17:12:55.690Z,23
2024-02-13T17:17:57.503Z,25
2024-02-13T17:22:58.968Z,22
2024-02-13T17:28:00.566Z,19
2024-02-13T17:33:03.159Z,23
2024-02-13T17:38:04.868Z,33
2024-02-13T17:43:06.462Z,27
2024-02-13T17:48:08.091Z,28
2024-02-13T17:53:09.529Z,27
2024-02-13T17:58:10.879Z,29
2024-02-13T18:03:12.524Z,31
2024-02-13T18:08:13.981Z,45
2024-02-13T18:13:15.430Z,29
2024-02-13T18:18:17.154Z,17
2024-02-13T18:23:18.686Z,17
2024-02-13T18:28:20.118Z,26
2024-02-13T18:33:21.792Z,31
2024-02-13T18:38:23.796Z,21
2024-02-13T18:43:25.290Z,26
2024-02-13T18:48:26.987Z,24
2024-02-13T18:53:28.839Z,26
2024-02-13T18:58:30.629Z,17
2024-02-13T19:03:32.714Z,21
2024-02-13T19:08:34.267Z,21
2024-02-13T19:13:35.689Z,19
2024-02-13T19:18:37.719Z,18
2024-02-13T19:23:39.504Z,18
2024-02-13T19:28:41.102Z,22
2024-02-13T19:33:42.930Z,19
2024-02-13T19:38:44.589Z,29
2024-02-13T19:43:46.178Z,30
2024-02-13T19:48:47.869Z,15
2024-02-13T19:53:49.476Z,19
2024-02-13T19:58:51.012Z,22
2024-02-13T20:03:52.780Z,16
2024-02-13T20:08:54.355Z,21
2024-02-13T20:13:55.923Z,10
2024-02-13T20:18:58.018Z,13
2024-02-13T20:23:59.825Z,13
2024-02-13T20:29:01.366Z,16
2024-02-13T20:34:03.293Z,10
2024-02-13T20:39:05.011Z,13
2024-02-13T20:44:06.441Z,20
2024-02-13T20:49:07.953Z,19
2024-02-13T20:54:09.605Z,18
2024-02-13T20:59:11.105Z,20
2024-02-13T21:04:12.666Z,18
2024-02-13T21:09:14.885Z,15
2024-02-13T21:14:16.441Z,12
2024-02-13T21:19:18.004Z,13
2024-02-13T21:24:19.794Z,22
2024-02-13T21:29:21.290Z,26
2024-02-13T21:34:23.118Z,17
2024-02-13T21:39:24.911Z,21
2024-02-13T21:44:26.433Z,21
2024-02-13T21:49:28.092Z,21
2024-02-13T21:54:29.891Z,27
2024-02-13T21:59:31.339Z,21
2024-02-13T22:04:34.728Z,15
2024-02-13T22:09:36.881Z,17
2024-02-13T22:14:38.483Z,17
2024-02-13T22:19:40.007Z,20
2024-02-13T22:24:41.697Z,27
2024-02-13T22:29:43.141Z,18
2024-02-13T22:34:44.919Z,27
2024-02-13T22:39:46.663Z,31
2024-02-13T22:44:48.107Z,26
2024-02-13T22:49:49.756Z,27
2024-02-13T22:54:51.305Z,29
2024-02-13T22:59:52.930Z,24
2024-02-13T23:04:54.568Z,21
2024-02-13T23:09:56.091Z,14
2024-02-13T23:14:58.140Z,28
2024-02-13T23:20:01.592Z,25
2024-02-13T23:25:03.156Z,24
2024-02-13T23:30:04.600Z,26
2024-02-13T23:35:06.167Z,18
2024-02-13T23:40:07.728Z,20
2024-02-13T23:45:09.382Z,19
2024-02-13T23:50:10.885Z,21
2024-02-13T23:55:12.270Z,22
